EDTL METAR and TAF | Updated Today

EDTL METAR

Lahr Airport

Observation time: 34 min. ago

EDTL 052020Z AUTO 01009KT 9999 // BKN010/// 05/04 Q1036

Need help? Read our tutorial on how to read METARs or read the parsed version below.

Lahr Airport (EDTL) METAR

  • Weather conditions on Sun, 05 Feb 2023 20:20:00 +0000 (34 min. ago):
  • Present conditions: Dry
  • Clouds: Broken sky at 305 meters
  • Visibility: Greater than 10 km
  • Wind: 10 degrees at 9 knots
  • Temperature: 5 celsius
  • Dew point: 4 celsius
  • Pressure: 1036 millibars
  • Remarks: None


Useful to know...

EDTL TAF

Lahr Airport

TAF EDTL 051700Z 0518/0524 34006KT 7000 SCT005 BKN020 TEMPO 0518/0524 3000 -RADZ BR BKN005
Observation time: 3:54 hr. ago
Need help? Read our tutorial on how to read TAFs or read the parsed version below.

Parsed version of TAF for Lahr Airport (EDTL)

  • From 05 February at 18:00 UTC, to day 05 of the month at 24:00 UTC
  • Clouds: Scattered at 152 meters; broken sky at 610 meters
  • Visibility: 7000 meters
  • Wind: 340 degrees at 6
  • Expected to arise temporarily, from 05 February at 18:00 UTC, to day 05 of the month at 24:00 UTC
  • Clouds: Broken sky at 152 meters
  • Visibility: 3000 meters
  • Other: Light rain drizzle; mist